Time;durP1;ratioP1;P1;durP2;ratioP2;P2;SDS_P1;SDS_P2;PMS_P1;PMS_P2;Temp;Humidity;BMP_temperature;BMP_pressure;BME280_temperature;BME280_humidity;BME280_pressure;Samples;Min_cycle;Max_cycle;Signal;HPM_P1;HPM_P2
2022/08/06 00:02:25;;;;;;;0.83;0.63;;;12.80;99.90;;;;;;5014381;28;20280;-78
2022/08/06 00:04:51;;;;;;;0.40;0.20;;;12.70;99.90;;;;;;5014462;28;21033;-78
2022/08/06 00:07:17;;;;;;;1.57;0.60;;;12.70;99.90;;;;;;5014392;28;20516;-79
2022/08/06 00:09:43;;;;;;;0.40;0.20;;;12.70;99.90;;;;;;5014009;28;20518;-78
2022/08/06 00:12:08;;;;;;;0.60;0.20;;;12.60;99.90;;;;;;4997098;28;20167;-79
2022/08/06 00:14:34;;;;;;;0.40;0.20;;;12.60;99.90;;;;;;4997055;28;20181;-79
2022/08/06 00:17:00;;;;;;;0.67;0.20;;;12.50;99.90;;;;;;4997766;28;20174;-80
2022/08/06 00:19:26;;;;;;;1.53;0.53;;;12.50;99.90;;;;;;5015243;28;20177;-80
2022/08/06 00:21:53;;;;;;;0.40;0.20;;;12.40;99.90;;;;;;5015214;28;20205;-79
2022/08/06 00:24:19;;;;;;;0.40;0.30;;;12.40;99.90;;;;;;5014921;28;20520;-79
2022/08/06 00:26:45;;;;;;;0.30;0.20;;;12.40;99.90;;;;;;5014778;28;20427;-79
2022/08/06 00:29:11;;;;;;;0.40;0.20;;;12.40;99.90;;;;;;4997409;28;20476;-81
2022/08/06 00:31:36;;;;;;;0.40;0.10;;;12.40;99.90;;;;;;5015021;28;20824;-80
2022/08/06 00:34:03;;;;;;;0.87;0.30;;;12.40;99.90;;;;;;5015087;28;20169;-78
2022/08/06 00:36:30;;;;;;;0.50;0.30;;;12.30;99.90;;;;;;5014923;28;20218;-79
2022/08/06 00:39:02;;;;;;;0.77;0.10;;;12.40;99.90;;;;;;5013578;28;20473;-79
2022/08/06 00:41:29;;;;;;;0.30;0.20;;;12.30;99.90;;;;;;5013612;28;20487;-79
2022/08/06 00:43:55;;;;;;;2.03;0.40;;;12.30;99.90;;;;;;5013548;28;20416;-78
2022/08/06 00:46:22;;;;;;;2.63;0.43;;;12.20;99.90;;;;;;5013553;28;20476;-83
2022/08/06 00:48:47;;;;;;;0.40;0.30;;;12.30;99.90;;;;;;5013611;28;20413;-78
2022/08/06 00:51:13;;;;;;;1.37;0.33;;;12.30;99.90;;;;;;5013337;28;20462;-78
2022/08/06 00:53:38;;;;;;;0.40;0.20;;;12.30;99.90;;;;;;5013270;28;20537;-79
2022/08/06 00:56:04;;;;;;;0.73;0.30;;;12.20;99.90;;;;;;5013344;28;20550;-78
2022/08/06 00:58:30;;;;;;;0.30;0.20;;;12.20;99.90;;;;;;5013402;28;20180;-80
2022/08/06 01:00:55;;;;;;;0.77;0.23;;;12.10;99.90;;;;;;5013488;28;20208;-78
2022/08/06 01:03:22;;;;;;;0.60;0.30;;;12.20;99.90;;;;;;5013310;28;20209;-78
2022/08/06 01:05:47;;;;;;;0.93;0.23;;;12.20;99.90;;;;;;5013412;28;20179;-77
2022/08/06 01:08:13;;;;;;;0.40;0.20;;;12.20;99.90;;;;;;4995400;28;20859;-78
2022/08/06 01:10:38;;;;;;;0.50;0.20;;;12.10;99.90;;;;;;5013252;28;20176;-78
2022/08/06 01:13:04;;;;;;;1.70;0.20;;;12.10;99.90;;;;;;5012999;28;20178;-79
2022/08/06 01:15:34;;;;;;;0.53;0.33;;;12.20;99.90;;;;;;5013212;28;20182;-78
2022/08/06 01:18:11;;;;;;;0.40;0.20;;;12.20;99.90;;;;;;5013153;28;20194;-79
2022/08/06 01:20:58;;;;;;;0.87;0.20;;;12.10;99.90;;;;;;5012867;28;20415;-78
2022/08/06 01:23:36;;;;;;;0.70;0.20;;;12.10;99.90;;;;;;5012265;28;20412;-79
2022/08/06 01:26:30;;;;;;;0.40;0.20;;;12.10;99.90;;;;;;5012942;28;20497;-79
2022/08/06 01:29:20;;;;;;;1.13;0.20;;;12.00;99.90;;;;;;5011564;28;20549;-78
2022/08/06 01:32:01;;;;;;;0.50;0.20;;;12.00;99.90;;;;;;5012185;28;20418;-78
2022/08/06 01:34:48;;;;;;;0.43;0.30;;;12.00;99.90;;;;;;5012835;28;20522;-79
2022/08/06 01:37:17;;;;;;;0.40;0.20;;;11.90;99.90;;;;;;5012725;28;20418;-80
2022/08/06 01:39:48;;;;;;;0.43;0.20;;;11.90;99.90;;;;;;5011612;28;20423;-78
2022/08/06 01:42:16;;;;;;;0.30;0.20;;;11.90;99.90;;;;;;5012511;28;20832;-79
2022/08/06 01:44:45;;;;;;;1.03;0.20;;;11.90;99.90;;;;;;5012513;28;20455;-79
2022/08/06 01:47:12;;;;;;;0.50;0.20;;;11.90;99.90;;;;;;5012607;28;20420;-80
2022/08/06 01:49:40;;;;;;;0.50;0.20;;;11.90;99.90;;;;;;5012450;28;20539;-79
2022/08/06 01:52:10;;;;;;;0.37;0.20;;;11.90;99.90;;;;;;5012360;28;20431;-79
2022/08/06 01:54:40;;;;;;;1.33;0.20;;;11.90;99.90;;;;;;5012001;28;20416;-78
2022/08/06 01:57:07;;;;;;;0.40;0.20;;;11.80;99.90;;;;;;5012389;28;20420;-78
2022/08/06 01:59:36;;;;;;;0.73;0.23;;;11.90;99.90;;;;;;5012355;28;20511;-78
2022/08/06 02:02:04;;;;;;;0.63;0.23;;;11.80;99.90;;;;;;5012333;28;20966;-80
2022/08/06 02:04:38;;;;;;;0.40;0.20;;;11.80;99.90;;;;;;5012330;28;20477;-80
2022/08/06 02:07:07;;;;;;;0.60;0.30;;;11.70;99.90;;;;;;5012250;28;20422;-79
2022/08/06 02:09:34;;;;;;;0.40;0.20;;;11.80;99.90;;;;;;5011860;28;20429;-78
2022/08/06 02:12:04;;;;;;;0.60;0.30;;;11.80;99.90;;;;;;4994582;28;20431;-79
2022/08/06 02:14:32;;;;;;;1.27;0.40;;;11.80;99.90;;;;;;5012197;28;20416;-79
2022/08/06 02:16:59;;;;;;;0.93;0.20;;;11.80;99.90;;;;;;5012801;28;20821;-79
2022/08/06 02:19:28;;;;;;;0.30;0.20;;;11.80;99.90;;;;;;5013392;28;20425;-78
2022/08/06 02:21:55;;;;;;;1.53;0.37;;;11.80;99.90;;;;;;5013258;28;20488;-78
2022/08/06 02:24:23;;;;;;;0.87;0.33;;;11.80;99.90;;;;;;5013018;28;20431;-79
2022/08/06 02:26:51;;;;;;;0.40;0.20;;;11.70;99.90;;;;;;5013330;28;20466;-78
2022/08/06 02:29:17;;;;;;;0.50;0.20;;;11.80;99.90;;;;;;5013320;28;20441;-78
2022/08/06 02:31:44;;;;;;;0.40;0.20;;;11.80;99.90;;;;;;4995698;28;20923;-79
2022/08/06 02:34:10;;;;;;;0.50;0.27;;;11.90;99.90;;;;;;5013022;28;20421;-78
2022/08/06 02:36:42;;;;;;;0.60;0.20;;;11.80;99.90;;;;;;4995711;28;20584;-78
2022/08/06 02:39:21;;;;;;;0.50;0.20;;;11.70;99.90;;;;;;5012837;28;20167;-78
2022/08/06 02:42:04;;;;;;;0.60;0.20;;;11.70;99.90;;;;;;5013090;28;20535;-78
2022/08/06 02:44:30;;;;;;;0.50;0.20;;;11.70;99.90;;;;;;5013168;28;20987;-79
2022/08/06 02:47:07;;;;;;;0.40;0.20;;;11.60;99.90;;;;;;5013120;28;20565;-78
2022/08/06 02:49:36;;;;;;;0.87;0.20;;;11.60;99.90;;;;;;5013664;28;20685;-78
2022/08/06 02:52:15;;;;;;;1.00;0.30;;;11.50;99.90;;;;;;5017143;28;20428;-78
2022/08/06 02:54:54;;;;;;;1.00;0.20;;;11.50;99.90;;;;;;4999498;28;20955;-80
2022/08/06 02:57:23;;;;;;;0.40;0.20;;;11.50;99.90;;;;;;5017042;28;20824;-79
2022/08/06 02:59:59;;;;;;;1.13;0.57;;;11.50;99.90;;;;;;5016904;28;20502;-78
2022/08/06 03:02:28;;;;;;;0.40;0.20;;;11.50;99.90;;;;;;4999280;28;20551;-79
2022/08/06 03:04:55;;;;;;;1.13;0.40;;;11.40;99.90;;;;;;5016961;28;20481;-79
2022/08/06 03:07:27;;;;;;;0.63;0.20;;;11.40;99.90;;;;;;5016632;28;20421;-79
2022/08/06 03:09:54;;;;;;;0.50;0.20;;;11.30;99.90;;;;;;5016718;28;20425;-79
2022/08/06 03:12:21;;;;;;;0.67;0.20;;;11.30;99.90;;;;;;5016826;28;20954;-79
2022/08/06 03:14:48;;;;;;;0.60;0.20;;;11.40;99.90;;;;;;4999101;28;20435;-78
2022/08/06 03:17:15;;;;;;;0.70;0.30;;;11.40;99.90;;;;;;5016702;28;20414;-78
2022/08/06 03:19:43;;;;;;;0.43;0.30;;;11.40;99.90;;;;;;5016589;28;20509;-79
2022/08/06 03:22:09;;;;;;;0.80;0.30;;;11.30;99.90;;;;;;5016539;28;20529;-79
2022/08/06 03:24:37;;;;;;;0.83;0.50;;;11.30;99.90;;;;;;5016210;28;20505;-79
2022/08/06 03:27:04;;;;;;;1.20;0.40;;;11.30;99.90;;;;;;5016545;28;20828;-78
2022/08/06 03:29:32;;;;;;;0.50;0.20;;;11.30;99.90;;;;;;5016491;28;20501;-79
2022/08/06 03:31:59;;;;;;;0.47;0.20;;;11.30;99.90;;;;;;5016396;28;20787;-79
2022/08/06 03:34:26;;;;;;;0.57;0.40;;;11.30;99.90;;;;;;5016351;28;20877;-79
2022/08/06 03:36:53;;;;;;;0.30;0.20;;;11.30;99.90;;;;;;5016392;28;20424;-79
2022/08/06 03:39:20;;;;;;;0.50;0.20;;;11.30;99.90;;;;;;5015916;28;20408;-79
2022/08/06 03:41:47;;;;;;;1.33;0.63;;;11.20;99.90;;;;;;5016213;28;20562;-79
2022/08/06 03:44:13;;;;;;;0.60;0.20;;;11.20;99.90;;;;;;5016156;28;20946;-78
2022/08/06 03:47:10;;;;;;;1.27;0.40;;;11.20;99.90;;;;;;5016100;28;20431;-79
2022/08/06 03:49:41;;;;;;;0.50;0.20;;;11.30;99.90;;;;;;5015923;28;20454;-78
2022/08/06 03:52:08;;;;;;;0.90;0.33;;;11.40;99.90;;;;;;5016090;28;20415;-78
2022/08/06 03:54:38;;;;;;;0.40;0.20;;;11.40;99.90;;;;;;5015619;28;20431;-78
2022/08/06 03:57:09;;;;;;;0.93;0.53;;;11.40;99.90;;;;;;5016059;28;20462;-79
2022/08/06 03:59:39;;;;;;;0.30;0.20;;;11.30;99.90;;;;;;5015906;28;20569;-78
2022/08/06 04:02:06;;;;;;;1.20;0.20;;;11.30;99.90;;;;;;4997518;28;20485;-78
2022/08/06 04:04:33;;;;;;;1.80;0.40;;;11.30;99.90;;;;;;5015822;28;20427;-79
2022/08/06 04:07:01;;;;;;;0.70;0.20;;;11.30;99.90;;;;;;5015826;28;20418;-78
2022/08/06 04:09:29;;;;;;;0.63;0.30;;;11.20;99.90;;;;;;5015288;28;20772;-79
2022/08/06 04:11:55;;;;;;;0.70;0.27;;;11.20;99.90;;;;;;5015729;28;20410;-78
2022/08/06 04:14:22;;;;;;;0.50;0.20;;;11.30;99.90;;;;;;4998045;28;20431;-78
2022/08/06 04:16:48;;;;;;;0.50;0.30;;;11.30;99.90;;;;;;5015604;28;20546;-79
2022/08/06 04:19:18;;;;;;;0.57;0.17;;;11.30;99.90;;;;;;4997959;28;20462;-79
2022/08/06 04:21:44;;;;;;;0.50;0.20;;;11.30;99.90;;;;;;4997757;28;20475;-78
2022/08/06 04:24:10;;;;;;;0.30;0.10;;;11.30;99.90;;;;;;5015169;28;20408;-78
2022/08/06 04:26:37;;;;;;;0.47;0.20;;;11.30;99.90;;;;;;5015421;28;20489;-79
2022/08/06 04:29:05;;;;;;;0.50;0.23;;;11.40;99.90;;;;;;5015302;28;20165;-79
2022/08/06 04:31:32;;;;;;;1.50;0.33;;;11.40;99.90;;;;;;5015337;28;20747;-79
2022/08/06 04:33:59;;;;;;;2.77;0.20;;;11.40;99.90;;;;;;5015186;28;20412;-79
2022/08/06 04:36:25;;;;;;;0.60;0.20;;;11.40;99.90;;;;;;5015195;28;20424;-79
2022/08/06 04:38:51;;;;;;;2.03;0.27;;;11.40;99.90;;;;;;5014859;28;20413;-78
2022/08/06 04:41:17;;;;;;;1.30;0.40;;;11.40;99.90;;;;;;5015039;28;20464;-79
2022/08/06 04:43:44;;;;;;;1.47;0.30;;;11.40;99.90;;;;;;5015084;28;20753;-79
2022/08/06 04:46:10;;;;;;;0.70;0.30;;;11.50;99.90;;;;;;5021375;28;20221;-79
2022/08/06 04:48:36;;;;;;;0.43;0.30;;;11.60;99.90;;;;;;5023919;28;20424;-78
2022/08/06 04:51:03;;;;;;;0.50;0.20;;;11.60;99.90;;;;;;5016232;28;20254;-79
2022/08/06 04:53:36;;;;;;;0.40;0.20;;;11.60;99.90;;;;;;5015694;28;20188;-78
2022/08/06 04:56:01;;;;;;;1.10;0.53;;;11.60;99.90;;;;;;4997986;28;20435;-78
2022/08/06 04:58:26;;;;;;;1.70;0.20;;;11.60;99.90;;;;;;5014788;28;20814;-79
2022/08/06 05:00:52;;;;;;;1.13;0.40;;;11.70;99.90;;;;;;5014695;28;20259;-84
2022/08/06 05:03:18;;;;;;;0.50;0.30;;;11.70;99.90;;;;;;5015167;28;20180;-88
2022/08/06 05:05:50;;;;;;;0.80;0.23;;;11.80;99.90;;;;;;5015098;28;20673;-84
2022/08/06 05:08:17;;;;;;;1.30;0.60;;;11.80;99.90;;;;;;5015062;28;20194;-84
2022/08/06 05:10:51;;;;;;;0.87;0.57;;;11.80;99.90;;;;;;5015088;28;20424;-85
2022/08/06 05:13:20;;;;;;;0.80;0.40;;;12.00;99.90;;;;;;5014223;28;20428;-87
2022/08/06 05:15:51;;;;;;;0.40;0.20;;;12.00;99.90;;;;;;5015046;28;20412;-80
2022/08/06 05:18:25;;;;;;;1.17;0.33;;;12.10;99.90;;;;;;5014837;28;20424;-82
2022/08/06 05:20:54;;;;;;;0.90;0.40;;;12.20;99.90;;;;;;5014489;28;20531;-85
2022/08/06 05:23:40;;;;;;;0.90;0.60;;;12.20;99.90;;;;;;5014403;28;20506;-88
2022/08/06 05:26:07;;;;;;;2.53;0.73;;;12.40;99.90;;;;;;5014548;28;20423;-85
2022/08/06 05:28:32;;;;;;;0.87;0.20;;;12.50;99.90;;;;;;5014546;28;20827;-83
2022/08/06 05:30:58;;;;;;;0.83;0.40;;;12.60;99.90;;;;;;5014479;28;20414;-88
2022/08/06 05:33:29;;;;;;;1.03;0.40;;;12.70;99.90;;;;;;5014812;28;20172;-88
2022/08/06 05:35:55;;;;;;;0.60;0.20;;;12.90;99.90;;;;;;5014532;28;20199;-88
2022/08/06 05:38:20;;;;;;;0.60;0.27;;;13.10;99.90;;;;;;5014441;28;20447;-87
2022/08/06 05:40:46;;;;;;;2.50;0.47;;;13.30;99.90;;;;;;5013695;28;20917;-89
2022/08/06 05:43:12;;;;;;;1.10;0.40;;;13.50;99.90;;;;;;5013170;28;20182;-83
2022/08/06 05:45:40;;;;;;;1.80;0.23;;;13.80;99.90;;;;;;5013464;28;20788;-89
2022/08/06 05:48:08;;;;;;;0.80;0.30;;;14.20;99.90;;;;;;4995806;28;20663;-89
2022/08/06 05:50:40;;;;;;;1.20;0.60;;;14.80;99.90;;;;;;5013266;28;20620;-86
2022/08/06 05:53:12;;;;;;;0.90;0.47;;;15.30;99.90;;;;;;5013009;28;20423;-84
2022/08/06 05:55:48;;;;;;;0.80;0.30;;;15.70;99.90;;;;;;5013442;28;20923;-80
2022/08/06 05:58:19;;;;;;;1.53;0.60;;;16.00;99.90;;;;;;4996320;28;20424;-80
2022/08/06 06:00:45;;;;;;;0.77;0.20;;;16.30;99.90;;;;;;5012853;28;20440;-80
2022/08/06 06:03:15;;;;;;;2.30;0.63;;;16.40;99.90;;;;;;5013879;28;20425;-88
2022/08/06 06:05:42;;;;;;;0.43;0.20;;;16.50;99.90;;;;;;5014384;28;20447;-90
2022/08/06 06:08:08;;;;;;;0.40;0.10;;;16.80;99.90;;;;;;4996281;28;20432;-86
2022/08/06 06:10:35;;;;;;;1.40;0.30;;;17.10;1.00;;;;;;5013770;28;20781;-87
2022/08/06 06:13:02;;;;;;;0.47;0.20;;;17.50;1.00;;;;;;5013668;28;20417;-86
2022/08/06 06:15:28;;;;;;;1.43;0.10;;;17.90;1.00;;;;;;5013661;28;20424;-84
2022/08/06 06:18:19;;;;;;;0.40;0.20;;;18.40;99.90;;;;;;5013880;28;20763;-83
2022/08/06 06:21:03;;;;;;;0.70;0.20;;;18.20;1.00;;;;;;5013127;28;20433;-82
2022/08/06 06:23:40;;;;;;;1.27;0.30;;;18.20;1.00;;;;;;5013056;28;20444;-87
2022/08/06 06:26:28;;;;;;;0.37;0.20;;;18.40;99.90;;;;;;5013047;28;20455;-86
2022/08/06 06:29:12;;;;;;;0.70;0.20;;;19.50;1.00;;;;;;5013429;28;20779;-86
2022/08/06 06:31:58;;;;;;;0.60;0.30;;;19.50;99.90;;;;;;5013382;28;20408;-86
2022/08/06 06:34:46;;;;;;;0.53;0.20;;;18.80;1.00;;;;;;5013237;28;20833;-86
2022/08/06 06:37:41;;;;;;;2.33;0.40;;;18.40;99.90;;;;;;4995285;28;21004;-82
2022/08/06 06:40:06;;;;;;;0.30;0.20;;;19.10;1.00;;;;;;4993569;28;20790;-85
2022/08/06 06:42:42;;;;;;;1.20;0.20;;;17.60;99.90;;;;;;4993500;28;20466;-79
2022/08/06 06:45:32;;;;;;;0.40;0.20;;;17.70;1.00;;;;;;4993643;28;20249;-83
2022/08/06 06:48:08;;;;;;;1.40;0.20;;;21.00;1.00;;;;;;4993620;28;20423;-80
2022/08/06 06:50:39;;;;;;;1.90;0.30;;;22.30;99.90;;;;;;4993369;28;20457;-81
2022/08/06 06:53:06;;;;;;;0.50;0.20;;;23.00;99.90;;;;;;4993087;28;20419;-79
2022/08/06 06:55:36;;;;;;;0.80;0.30;;;23.10;99.90;;;;;;4993439;28;20416;-79
2022/08/06 06:58:11;;;;;;;0.50;0.20;;;23.20;99.90;;;;;;4993511;28;20418;-79
2022/08/06 07:00:38;;;;;;;0.50;0.20;;;23.40;94.20;;;;;;4993238;28;20419;-78
2022/08/06 07:03:05;;;;;;;0.77;0.20;;;23.70;97.70;;;;;;5000393;28;20433;-79
2022/08/06 07:05:34;;;;;;;0.70;0.20;;;24.60;83.40;;;;;;5012964;28;20414;-79
2022/08/06 07:08:01;;;;;;;0.50;0.20;;;24.60;58.80;;;;;;5012626;28;20414;-78
2022/08/06 07:10:27;;;;;;;1.13;0.20;;;24.90;46.10;;;;;;5012986;28;20488;-79
2022/08/06 07:12:54;;;;;;;0.90;0.50;;;25.00;37.00;;;;;;5012920;28;20862;-80
2022/08/06 07:15:22;;;;;;;0.77;0.10;;;25.20;29.30;;;;;;5012914;28;20418;-80
2022/08/06 07:17:49;;;;;;;0.50;0.20;;;25.30;21.90;;;;;;5012402;28;20452;-79
2022/08/06 07:20:19;;;;;;;0.40;0.20;;;25.40;26.10;;;;;;5012384;28;20417;-78
2022/08/06 07:22:46;;;;;;;0.67;0.23;;;25.60;21.30;;;;;;5011080;28;20575;-79
2022/08/06 07:25:14;;;;;;;0.50;0.20;;;25.30;14.60;;;;;;5011390;28;20414;-79
2022/08/06 07:27:43;;;;;;;1.00;0.20;;;25.60;17.00;;;;;;5011456;28;20433;-80
2022/08/06 07:30:13;;;;;;;0.50;0.20;;;25.80;13.20;;;;;;5011507;28;20509;-79
2022/08/06 07:32:39;;;;;;;0.50;0.20;;;25.40;7.40;;;;;;5011452;28;20410;-79
2022/08/06 07:35:06;;;;;;;0.97;0.20;;;25.50;4.20;;;;;;5011274;28;20930;-85
2022/08/06 07:37:35;;;;;;;0.50;0.20;;;25.60;3.10;;;;;;5013148;28;20523;-80
2022/08/06 07:40:03;;;;;;;0.80;0.20;;;25.80;5.30;;;;;;5014776;28;21221;-79
2022/08/06 07:42:29;;;;;;;0.47;0.20;;;26.00;3.40;;;;;;5014610;28;20563;-80
2022/08/06 07:45:00;;;;;;;0.63;0.20;;;25.70;1.00;;;;;;5016233;28;20410;-81
2022/08/06 07:47:32;;;;;;;0.70;0.20;;;26.10;3.60;;;;;;5016303;28;20433;-81
2022/08/06 07:49:59;;;;;;;1.33;0.20;;;24.50;1.00;;;;;;5016309;28;20453;-83
2022/08/06 07:52:25;;;;;;;0.40;0.20;;;24.10;16.10;;;;;;4998286;28;20433;-83
2022/08/06 07:54:53;;;;;;;0.83;0.20;;;24.50;13.20;;;;;;5016294;28;20422;-81
2022/08/06 07:57:19;;;;;;;0.50;0.20;;;25.10;29.60;;;;;;5016328;28;20450;-83
2022/08/06 07:59:46;;;;;;;0.50;0.30;;;24.00;13.20;;;;;;5016065;28;20425;-79
2022/08/06 08:02:13;;;;;;;0.50;0.20;;;24.30;8.00;;;;;;5016047;28;20477;-79
2022/08/06 08:07:34;;;;;;;1.03;0.23;;;26.10;9.70;;;;;;4961072;28;20425;-80
2022/08/06 08:10:00;;;;;;;0.50;0.20;;;24.50;2.40;;;;;;5015924;28;20424;-88
2022/08/06 08:12:27;;;;;;;0.40;0.20;;;22.40;35.60;;;;;;4998438;28;20175;-89
2022/08/06 08:14:52;;;;;;;0.50;0.20;;;21.30;99.90;;;;;;5014999;28;20517;-80
2022/08/06 08:17:18;;;;;;;0.40;0.20;;;20.70;99.90;;;;;;5015461;28;20505;-78
2022/08/06 08:19:44;;;;;;;0.53;0.20;;;19.80;71.60;;;;;;5015022;28;20171;-87
2022/08/06 08:22:16;;;;;;;0.47;0.20;;;19.60;99.90;;;;;;5014922;28;20541;-79
2022/08/06 08:24:44;;;;;;;0.50;0.20;;;19.70;99.90;;;;;;5015131;28;20174;-82
2022/08/06 08:27:10;;;;;;;0.70;0.20;;;21.10;1.00;;;;;;4997787;28;20418;-81
2022/08/06 08:29:37;;;;;;;0.67;0.20;;;24.20;99.90;;;;;;5015027;28;20437;-80
2022/08/06 08:32:03;;;;;;;0.30;0.20;;;22.60;99.90;;;;;;5014681;28;20430;-84
2022/08/06 08:34:29;;;;;;;0.57;0.23;;;22.20;99.90;;;;;;5015278;28;20418;-79
2022/08/06 08:36:55;;;;;;;0.40;0.20;;;22.10;99.90;;;;;;5014896;28;20497;-85
2022/08/06 08:39:20;;;;;;;1.03;0.20;;;22.10;99.90;;;;;;5014712;28;20179;-86
2022/08/06 08:41:49;;;;;;;0.50;0.20;;;22.00;99.90;;;;;;5015049;28;20253;-80
2022/08/06 08:44:19;;;;;;;0.60;0.20;;;22.80;99.90;;;;;;5014991;28;20195;-80
2022/08/06 08:46:44;;;;;;;0.50;0.20;;;23.30;47.40;;;;;;5014993;28;20915;-82
2022/08/06 08:49:23;;;;;;;0.60;0.20;;;25.20;14.30;;;;;;5014726;28;20417;-83
2022/08/06 08:51:50;;;;;;;1.17;0.20;;;26.40;12.30;;;;;;5014662;28;20183;-85
2022/08/06 08:54:21;;;;;;;0.40;0.20;;;26.90;4.10;;;;;;5014906;28;20495;-84
2022/08/06 08:56:47;;;;;;;0.53;0.27;;;25.00;1.00;;;;;;5014906;28;20413;-84
2022/08/06 08:59:14;;;;;;;0.63;0.20;;;25.80;1.00;;;;;;5014866;28;20441;-83
2022/08/06 09:01:39;;;;;;;0.60;0.20;;;26.90;1.00;;;;;;5014707;28;20469;-81
2022/08/06 09:04:05;;;;;;;0.93;0.20;;;27.00;1.00;;;;;;5014755;28;20797;-83
2022/08/06 09:06:32;;;;;;;0.40;0.20;;;27.30;1.00;;;;;;5014387;28;20255;-81
2022/08/06 09:09:03;;;;;;;0.70;0.27;;;27.00;1.00;;;;;;5014574;28;20167;-80
2022/08/06 09:11:29;;;;;;;1.43;0.20;;;27.30;1.00;;;;;;5014557;28;20418;-85
2022/08/06 09:13:54;;;;;;;0.40;0.20;;;27.30;1.00;;;;;;5014548;28;20930;-85
2022/08/06 09:16:20;;;;;;;0.40;0.20;;;27.70;1.00;;;;;;5014533;28;20574;-85
2022/08/06 09:18:46;;;;;;;1.00;0.20;;;26.00;1.00;;;;;;5014485;28;20265;-85
2022/08/06 09:21:12;;;;;;;1.07;0.20;;;24.20;1.00;;;;;;4996888;28;20228;-81
2022/08/06 09:23:39;;;;;;;0.50;0.20;;;25.10;1.00;;;;;;4996441;28;20274;-81
2022/08/06 09:26:06;;;;;;;0.40;0.20;;;27.10;1.00;;;;;;5014320;28;20414;-80
2022/08/06 09:28:37;;;;;;;0.60;0.20;;;27.40;1.00;;;;;;4996749;28;20422;-84
2022/08/06 09:31:12;;;;;;;0.50;0.20;;;27.70;1.00;;;;;;5014218;28;20972;-83
2022/08/06 09:33:59;;;;;;;0.40;0.20;;;27.30;1.00;;;;;;5014220;28;20418;-80
2022/08/06 09:36:25;;;;;;;0.30;0.20;;;27.90;1.00;;;;;;5013870;28;20422;-85
2022/08/06 09:38:54;;;;;;;0.40;0.20;;;27.70;1.00;;;;;;5014174;28;20488;-85
2022/08/06 09:41:22;;;;;;;0.93;0.20;;;27.70;1.00;;;;;;5014002;28;20836;-86
2022/08/06 09:43:50;;;;;;;0.90;0.20;;;28.30;1.00;;;;;;5014037;28;20418;-85
2022/08/06 09:46:17;;;;;;;0.50;0.20;;;27.90;1.00;;;;;;5013978;28;20434;-84
2022/08/06 09:49:00;;;;;;;0.40;0.20;;;27.80;1.00;;;;;;5013968;28;20765;-81
2022/08/06 09:51:26;;;;;;;0.80;0.20;;;27.80;1.00;;;;;;5013305;28;20470;-81
2022/08/06 09:53:53;;;;;;;0.40;0.20;;;28.30;1.00;;;;;;5013846;28;20465;-83
2022/08/06 09:56:18;;;;;;;0.30;0.20;;;28.40;1.00;;;;;;5013857;28;20418;-82
2022/08/06 09:58:45;;;;;;;0.87;0.20;;;28.10;1.00;;;;;;4995890;28;20425;-86
2022/08/06 10:01:21;;;;;;;0.40;0.20;;;28.60;1.00;;;;;;5013346;28;20195;-83
2022/08/06 10:03:48;;;;;;;0.57;0.20;;;27.70;1.00;;;;;;5013696;28;20876;-85
2022/08/06 10:06:20;;;;;;;0.40;0.20;;;26.40;1.00;;;;;;5013279;28;20417;-85
2022/08/06 10:08:48;;;;;;;0.50;0.20;;;26.20;1.00;;;;;;5013575;28;20410;-81
2022/08/06 10:11:14;;;;;;;0.70;0.20;;;27.90;1.00;;;;;;5013522;28;20472;-81
2022/08/06 10:13:47;;;;;;;0.93;0.20;;;28.10;1.00;;;;;;5013555;28;20434;-84
2022/08/06 10:16:26;;;;;;;0.40;0.20;;;25.80;1.00;;;;;;5013646;28;20410;-86
2022/08/06 10:18:52;;;;;;;1.13;0.20;;;26.00;1.00;;;;;;5013512;28;20460;-84
2022/08/06 10:21:22;;;;;;;0.53;0.20;;;26.60;1.00;;;;;;5013089;28;20453;-85
2022/08/06 10:23:50;;;;;;;0.60;0.27;;;25.30;1.00;;;;;;5013395;28;20175;-84
2022/08/06 10:26:19;;;;;;;1.17;0.20;;;25.80;1.00;;;;;;5013790;28;20421;-84
2022/08/06 10:28:48;;;;;;;0.70;0.20;;;27.40;1.00;;;;;;5030399;28;20421;-80
2022/08/06 10:31:15;;;;;;;0.50;0.20;;;27.80;1.00;;;;;;5022345;28;20476;-80
2022/08/06 10:33:55;;;;;;;0.43;0.20;;;27.80;1.00;;;;;;5022891;28;20409;-81
2022/08/06 10:36:25;;;;;;;0.50;0.20;;;27.70;1.00;;;;;;5020489;28;20930;-84
2022/08/06 10:38:53;;;;;;;0.60;0.20;;;28.30;1.00;;;;;;5013452;28;20505;-86
2022/08/06 10:41:20;;;;;;;0.80;0.20;;;28.20;1.00;;;;;;5013133;28;20476;-86
2022/08/06 10:43:46;;;;;;;2.00;0.20;;;28.40;1.00;;;;;;5013113;28;20410;-80
2022/08/06 10:46:15;;;;;;;0.40;0.20;;;27.60;1.00;;;;;;5013159;28;20532;-86
2022/08/06 10:48:43;;;;;;;0.40;0.20;;;27.80;1.00;;;;;;5013124;28;20632;-82
2022/08/06 10:51:11;;;;;;;0.70;0.23;;;27.10;1.00;;;;;;5012535;28;20461;-80
2022/08/06 10:53:39;;;;;;;0.53;0.20;;;27.50;1.00;;;;;;5013108;28;20429;-85
2022/08/06 10:56:07;;;;;;;1.30;0.20;;;28.00;1.00;;;;;;5013107;28;20501;-83
2022/08/06 10:58:33;;;;;;;1.30;0.20;;;27.70;1.00;;;;;;5013083;28;20448;-82
2022/08/06 11:01:02;;;;;;;0.40;0.20;;;28.10;1.00;;;;;;5012976;28;20781;-85
2022/08/06 11:03:46;;;;;;;0.60;0.20;;;28.60;1.00;;;;;;5012897;28;20425;-81
2022/08/06 11:06:45;;;;;;;0.40;0.20;;;28.60;1.00;;;;;;5012704;28;20428;-83
2022/08/06 11:09:36;;;;;;;0.50;0.20;;;28.00;1.00;;;;;;5013003;28;20410;-87
2022/08/06 11:12:39;;;;;;;1.03;0.30;;;26.30;1.00;;;;;;5016112;28;20437;-84
2022/08/06 11:15:06;;;;;;;0.70;0.20;;;25.10;1.00;;;;;;5013667;28;20929;-85
2022/08/06 11:18:02;;;;;;;0.47;0.20;;;24.60;1.00;;;;;;5016735;28;20424;-83
2022/08/06 11:20:37;;;;;;;0.97;0.20;;;25.50;1.00;;;;;;5016725;28;20451;-83
2022/08/06 11:23:05;;;;;;;1.23;0.60;;;25.00;1.00;;;;;;5016294;28;20510;-82
2022/08/06 11:25:48;;;;;;;1.60;0.20;;;27.10;1.00;;;;;;5016536;28;20422;-80
2022/08/06 11:28:16;;;;;;;0.57;0.30;;;28.10;1.00;;;;;;5016653;28;20414;-84
2022/08/06 11:30:44;;;;;;;1.00;0.47;;;28.70;1.00;;;;;;5016350;28;20432;-82
2022/08/06 11:33:11;;;;;;;0.80;0.20;;;28.70;1.00;;;;;;5016468;28;20418;-84
2022/08/06 11:35:37;;;;;;;0.90;0.50;;;28.80;1.00;;;;;;5016357;28;20410;-81
2022/08/06 11:38:05;;;;;;;0.70;0.30;;;28.40;1.00;;;;;;5015964;28;20425;-83
2022/08/06 11:40:56;;;;;;;1.53;0.40;;;27.60;1.00;;;;;;5016230;28;20183;-83
2022/08/06 11:43:40;;;;;;;1.33;0.30;;;27.40;1.00;;;;;;5016199;28;20975;-84
2022/08/06 11:46:25;;;;;;;0.93;0.40;;;28.60;1.00;;;;;;5016241;28;20422;-82
2022/08/06 11:48:59;;;;;;;1.07;0.60;;;28.80;1.00;;;;;;5016162;28;20414;-82
2022/08/06 11:51:43;;;;;;;1.47;0.40;;;29.00;1.00;;;;;;5015608;28;20461;-84
2022/08/06 11:54:11;;;;;;;0.90;0.50;;;28.70;1.00;;;;;;4998463;28;20475;-84
2022/08/06 11:57:08;;;;;;;0.83;0.37;;;28.30;1.00;;;;;;5016077;28;20468;-82
2022/08/06 11:59:53;;;;;;;0.83;0.30;;;28.40;1.00;;;;;;5012859;28;20457;-81
2022/08/06 12:02:49;;;;;;;1.80;0.30;;;28.70;1.00;;;;;;5015879;28;20469;-81
2022/08/06 12:05:14;;;;;;;1.00;0.53;;;28.80;1.00;;;;;;5015967;28;20428;-85
2022/08/06 12:07:43;;;;;;;0.70;0.20;;;28.90;1.00;;;;;;5015502;28;20410;-87
2022/08/06 12:10:11;;;;;;;0.77;0.37;;;29.00;1.00;;;;;;5015880;28;20282;-83
2022/08/06 12:12:45;;;;;;;1.10;0.37;;;28.50;1.00;;;;;;5015728;28;20805;-86
2022/08/06 12:15:15;;;;;;;1.30;0.33;;;28.50;1.00;;;;;;4998180;28;20503;-82
2022/08/06 12:17:42;;;;;;;1.53;0.40;;;28.80;1.00;;;;;;5015670;28;20768;-86
2022/08/06 12:20:08;;;;;;;1.30;0.40;;;29.00;1.00;;;;;;5015549;28;20432;-87
2022/08/06 12:22:35;;;;;;;1.27;0.40;;;28.90;1.00;;;;;;4996923;28;20556;-80
2022/08/06 12:25:05;;;;;;;1.00;0.50;;;27.50;1.00;;;;;;4997930;28;20171;-86
2022/08/06 12:27:33;;;;;;;2.10;0.67;;;26.60;1.00;;;;;;4997728;28;20430;-80
2022/08/06 12:30:01;;;;;;;1.37;0.40;;;28.00;1.00;;;;;;5015410;28;20809;-81
2022/08/06 12:32:29;;;;;;;1.97;0.87;;;28.60;1.00;;;;;;5015295;28;20450;-80
2022/08/06 12:34:58;;;;;;;1.33;0.23;;;28.80;1.00;;;;;;4997878;28;20434;-86
2022/08/06 12:37:38;;;;;;;1.43;0.60;;;29.00;1.00;;;;;;5015077;28;20422;-86
2022/08/06 12:42:53;;;;;;;1.10;0.83;;;29.30;1.00;;;;;;5015325;28;20548;-84
2022/08/06 12:45:22;;;;;;;1.17;0.50;;;27.70;1.00;;;;;;5015025;28;20411;-80
2022/08/06 12:48:02;;;;;;;1.97;0.80;;;27.20;1.00;;;;;;5015152;28;20433;-80
2022/08/06 12:50:29;;;;;;;1.67;0.77;;;27.70;1.00;;;;;;5014914;28;20536;-83
2022/08/06 12:53:10;;;;;;;1.23;1.10;;;27.90;1.00;;;;;;5014579;28;20429;-87
2022/08/06 12:55:51;;;;;;;1.27;0.37;;;28.00;1.00;;;;;;5014968;28;20525;-81
2022/08/06 12:58:38;;;;;;;1.80;0.80;;;28.00;1.00;;;;;;5014950;28;20829;-84
2022/08/06 13:01:06;;;;;;;1.20;0.67;;;28.60;1.00;;;;;;5014744;28;20489;-81
2022/08/06 13:03:34;;;;;;;1.00;0.50;;;28.80;1.00;;;;;;5014775;28;20446;-81
2022/08/06 13:06:03;;;;;;;1.03;0.50;;;28.60;1.00;;;;;;5014658;28;20890;-81
2022/08/06 13:08:29;;;;;;;1.33;0.70;;;28.70;1.00;;;;;;5014730;28;20421;-81
2022/08/06 13:10:56;;;;;;;1.23;0.47;;;28.60;1.00;;;;;;5014559;28;20421;-81
2022/08/06 13:13:40;;;;;;;0.70;0.67;;;28.20;1.00;;;;;;5014567;28;20433;-81